createdAt,value
2023-07-25T00:01:41.597Z,58.74
2023-07-25T00:06:41.182Z,59.62
2023-07-25T00:11:40.401Z,60.47
2023-07-25T00:16:42.544Z,61.01
2023-07-25T00:21:42.329Z,61.66
2023-07-25T00:26:42.303Z,62.05
2023-07-25T00:31:42.355Z,61.78
2023-07-25T00:36:41.762Z,62.38
2023-07-25T00:41:42.658Z,62.33
2023-07-25T00:46:43.262Z,63.07
2023-07-25T00:51:43.236Z,61.92
2023-07-25T00:56:43.537Z,64.00
2023-07-25T01:01:43.689Z,63.42
2023-07-25T01:06:43.597Z,64.34
2023-07-25T01:11:42.590Z,65.11
2023-07-25T01:16:42.567Z,64.99
2023-07-25T01:21:42.502Z,65.98
2023-07-25T01:26:41.863Z,65.58
2023-07-25T01:31:41.011Z,66.02
2023-07-25T01:36:40.753Z,66.25
2023-07-25T01:41:42.144Z,65.45
2023-07-25T01:46:44.987Z,65.20
2023-07-25T01:51:44.544Z,65.91
2023-07-25T01:56:44.436Z,65.21
2023-07-25T02:01:43.873Z,65.03
2023-07-25T02:06:42.781Z,65.91
2023-07-25T02:11:42.020Z,65.92
2023-07-25T02:16:41.891Z,67.45
2023-07-25T02:21:41.701Z,67.24
2023-07-25T02:26:41.405Z,66.86
2023-07-25T02:31:41.223Z,66.92
2023-07-25T02:36:39.854Z,66.60
2023-07-25T02:41:39.390Z,67.91
2023-07-25T02:46:39.028Z,67.63
2023-07-25T02:51:37.978Z,68.06
2023-07-25T02:56:40.127Z,68.53
2023-07-25T03:01:40.019Z,68.90
2023-07-25T03:06:40.030Z,69.77
2023-07-25T03:11:39.315Z,70.03
2023-07-25T03:16:38.546Z,70.32
2023-07-25T03:21:37.956Z,69.93
2023-07-25T03:26:37.421Z,69.97
2023-07-25T03:31:37.103Z,70.66
2023-07-25T03:36:36.348Z,71.44
2023-07-25T03:41:36.132Z,70.53
2023-07-25T03:46:35.555Z,71.14
2023-07-25T03:51:35.117Z,70.44
2023-07-25T03:56:34.184Z,70.26
2023-07-25T04:01:34.829Z,69.62
2023-07-25T04:06:34.241Z,69.39
2023-07-25T04:11:33.717Z,68.77
2023-07-25T04:16:33.186Z,68.65
2023-07-25T04:21:33.692Z,68.31
2023-07-25T04:26:33.400Z,67.99
2023-07-25T04:31:33.393Z,68.21
2023-07-25T04:36:32.903Z,68.24
2023-07-25T04:41:32.634Z,68.11
2023-07-25T04:46:32.574Z,67.44
2023-07-25T04:51:31.525Z,66.99
2023-07-25T04:56:31.213Z,67.20
2023-07-25T05:01:31.413Z,66.92
2023-07-25T05:19:29.267Z,66.01
2023-07-25T05:24:29.212Z,65.67
2023-07-25T05:29:29.639Z,65.44
2023-07-25T05:34:29.425Z,65.14
2023-07-25T05:39:32.182Z,64.88
2023-07-25T05:44:32.045Z,64.16
2023-07-25T05:49:31.371Z,64.06
2023-07-25T05:54:32.308Z,64.01
2023-07-25T05:59:31.184Z,63.79
2023-07-25T06:04:30.425Z,63.73
2023-07-25T06:09:30.508Z,63.87
2023-07-25T06:14:31.745Z,63.72
2023-07-25T06:19:31.370Z,63.59
2023-07-25T06:24:30.994Z,63.33
2023-07-25T06:29:30.496Z,63.19
2023-07-25T06:34:30.076Z,63.01
2023-07-25T06:39:29.066Z,62.80
2023-07-25T06:44:28.337Z,62.46
2023-07-25T06:49:27.184Z,61.94
2023-07-25T06:54:26.807Z,60.89
2023-07-25T06:59:27.085Z,59.80
2023-07-25T07:04:27.006Z,59.39
2023-07-25T07:09:26.917Z,59.30
2023-07-25T07:14:26.217Z,59.03
2023-07-25T07:19:25.465Z,58.37
2023-07-25T07:24:25.011Z,58.56
2023-07-25T07:29:24.087Z,58.79
2023-07-25T07:34:24.096Z,58.37
2023-07-25T07:39:23.877Z,58.15
2023-07-25T07:44:25.398Z,58.02
2023-07-25T07:49:25.610Z,57.76
2023-07-25T07:54:26.118Z,57.67
2023-07-25T07:59:25.089Z,57.27
2023-07-25T08:04:24.613Z,56.03
2023-07-25T08:09:23.771Z,55.65
2023-07-25T08:14:23.186Z,55.23
2023-07-25T08:19:22.589Z,54.92
2023-07-25T08:24:21.986Z,54.42
2023-07-25T08:29:21.337Z,53.79
2023-07-25T08:34:21.032Z,53.39
2023-07-25T08:39:20.288Z,51.28
2023-07-25T08:44:22.266Z,49.78
2023-07-25T08:49:26.773Z,49.65
2023-07-25T08:54:33.696Z,50.11
2023-07-25T08:59:34.420Z,50.27
2023-07-25T09:04:34.341Z,49.41
2023-07-25T09:09:33.778Z,49.33
2023-07-25T09:14:34.167Z,49.17
2023-07-25T09:19:36.214Z,49.25
2023-07-25T09:24:43.818Z,49.68
2023-07-25T09:29:44.020Z,49.71
2023-07-25T09:34:48.220Z,49.69
2023-07-25T09:39:50.119Z,48.92
2023-07-25T09:44:53.057Z,48.87
2023-07-25T09:49:56.327Z,48.93
2023-07-25T09:54:55.942Z,48.70
2023-07-25T09:59:56.564Z,48.68
2023-07-25T10:04:58.297Z,48.54
2023-07-25T10:09:59.545Z,47.89
2023-07-25T10:15:01.345Z,48.00
2023-07-25T10:20:01.691Z,47.78
2023-07-25T10:25:01.561Z,47.30
2023-07-25T10:30:23.589Z,46.24
2023-07-25T10:41:01.311Z,45.68
2023-07-25T10:46:05.427Z,45.06
2023-07-25T10:51:08.534Z,43.81
2023-07-25T10:56:23.256Z,44.45
2023-07-25T11:01:38.171Z,44.51
2023-07-25T11:06:45.142Z,43.51
2023-07-25T11:11:50.768Z,42.75
2023-07-25T11:16:52.890Z,42.57
2023-07-25T11:21:52.371Z,42.74
2023-07-25T11:26:52.098Z,42.66
2023-07-25T11:31:55.357Z,42.73
2023-07-25T11:36:55.636Z,42.16
2023-07-25T11:41:55.562Z,41.80
2023-07-25T11:46:57.967Z,40.32
2023-07-25T11:51:58.554Z,40.52
2023-07-25T11:56:58.920Z,40.45
2023-07-25T12:02:09.977Z,38.76
2023-07-25T12:07:12.826Z,39.27
2023-07-25T12:12:18.550Z,40.40
2023-07-25T12:17:19.964Z,38.12
2023-07-25T12:22:22.111Z,37.93
2023-07-25T12:27:25.485Z,37.03
2023-07-25T12:32:25.392Z,36.68
2023-07-25T12:37:25.154Z,37.61
2023-07-25T12:42:25.754Z,38.02
2023-07-25T12:47:29.995Z,38.43
2023-07-25T12:52:33.188Z,38.51
2023-07-25T12:57:37.558Z,38.84
2023-07-25T13:02:38.956Z,38.23
2023-07-25T13:07:38.755Z,37.90
2023-07-25T13:12:39.035Z,37.61
2023-07-25T13:17:39.542Z,36.41
2023-07-25T13:22:40.040Z,36.29
2023-07-25T13:27:39.610Z,35.74
2023-07-25T13:32:40.698Z,35.63
2023-07-25T13:37:41.589Z,35.08
2023-07-25T13:42:42.460Z,34.92
2023-07-25T13:47:44.887Z,35.34
2023-07-25T13:52:44.144Z,34.92
2023-07-25T13:57:52.387Z,34.84
2023-07-25T14:02:52.696Z,35.30
2023-07-25T14:07:52.823Z,35.77
2023-07-25T14:12:52.560Z,35.63
2023-07-25T14:17:51.935Z,35.51
2023-07-25T14:22:52.000Z,35.19
2023-07-25T14:27:52.509Z,33.76
2023-07-25T14:32:52.478Z,32.80
2023-07-25T14:37:55.886Z,33.29
2023-07-25T14:42:56.927Z,33.43
2023-07-25T14:47:57.437Z,33.21
2023-07-25T14:52:57.021Z,34.03
2023-07-25T14:57:57.366Z,34.49
2023-07-25T15:02:57.415Z,35.39
2023-07-25T15:07:57.787Z,36.28
2023-07-25T15:12:57.764Z,37.13
2023-07-25T15:17:57.866Z,37.87
2023-07-25T15:22:57.764Z,38.55
2023-07-25T15:27:58.503Z,39.24
2023-07-25T15:32:58.359Z,39.86
2023-07-25T15:38:01.128Z,40.25
2023-07-25T15:43:02.137Z,40.66
2023-07-25T15:48:02.509Z,41.36
2023-07-25T15:53:03.799Z,41.71
2023-07-25T15:58:10.336Z,41.99
2023-07-25T16:03:10.369Z,42.15
2023-07-25T16:08:10.357Z,42.33
2023-07-25T16:13:09.837Z,42.71
2023-07-25T16:18:10.169Z,43.18
2023-07-25T16:23:10.461Z,43.48
2023-07-25T16:28:10.620Z,43.66
2023-07-25T16:33:11.199Z,44.17
2023-07-25T16:38:12.781Z,44.79
2023-07-25T16:43:12.919Z,44.74
2023-07-25T16:48:13.477Z,45.43
2023-07-25T16:53:13.868Z,45.80
2023-07-25T16:58:13.585Z,45.81
2023-07-25T17:03:13.689Z,46.30
2023-07-25T17:08:14.216Z,46.54
2023-07-25T17:13:15.386Z,46.82
2023-07-25T17:18:15.614Z,47.01
2023-07-25T17:23:15.790Z,47.97
2023-07-25T17:28:16.305Z,47.81
2023-07-25T17:33:16.451Z,47.51
2023-07-25T17:38:17.088Z,47.80
2023-07-25T17:43:17.781Z,47.71
2023-07-25T17:48:20.901Z,48.21
2023-07-25T17:53:20.428Z,48.41
2023-07-25T17:58:19.992Z,48.60
2023-07-25T18:03:20.483Z,48.72
2023-07-25T18:08:21.295Z,48.87
2023-07-25T18:13:24.467Z,48.57
2023-07-25T18:18:24.294Z,49.18
2023-07-25T18:23:23.369Z,48.98
2023-07-25T18:28:23.679Z,49.42
2023-07-25T18:33:23.686Z,49.22
2023-07-25T18:38:23.395Z,49.52
2023-07-25T18:43:27.149Z,49.66
2023-07-25T18:48:29.278Z,50.12
2023-07-25T18:53:31.606Z,49.99
2023-07-25T18:58:31.669Z,50.56
2023-07-25T19:03:32.326Z,50.45
2023-07-25T19:08:32.197Z,51.09
2023-07-25T19:13:32.722Z,51.39
2023-07-25T19:18:32.246Z,51.41
2023-07-25T19:23:32.639Z,51.57
2023-07-25T19:28:33.490Z,51.47
2023-07-25T19:33:34.672Z,51.74
2023-07-25T19:38:34.637Z,51.87
2023-07-25T19:43:35.923Z,51.88
2023-07-25T19:48:35.426Z,52.13
2023-07-25T19:53:36.783Z,52.25
2023-07-25T19:58:36.946Z,52.07
2023-07-25T20:03:38.315Z,52.33
2023-07-25T20:08:38.679Z,52.40
2023-07-25T20:13:39.848Z,52.51
2023-07-25T20:18:39.922Z,52.67
2023-07-25T20:23:40.131Z,53.19
2023-07-25T20:28:39.661Z,53.13
2023-07-25T20:33:44.826Z,53.30
2023-07-25T20:38:48.065Z,54.03
2023-07-25T20:43:48.511Z,53.91
2023-07-25T20:48:48.830Z,53.83
2023-07-25T20:53:48.588Z,54.36
2023-07-25T20:58:48.855Z,54.03
2023-07-25T21:03:48.855Z,54.31
2023-07-25T21:08:49.324Z,54.51
2023-07-25T21:13:49.263Z,54.88
2023-07-25T21:18:49.775Z,55.39
2023-07-25T21:23:49.795Z,56.10
2023-07-25T21:28:49.471Z,56.18
2023-07-25T21:33:49.415Z,56.64
2023-07-25T21:38:49.189Z,56.62
2023-07-25T21:43:48.738Z,56.74
2023-07-25T21:48:49.092Z,57.25
2023-07-25T21:53:49.102Z,57.00
2023-07-25T21:58:49.401Z,57.49
2023-07-25T22:03:49.605Z,57.48
2023-07-25T22:08:49.715Z,57.85
2023-07-25T22:13:49.118Z,58.36
2023-07-25T22:18:49.982Z,58.51
2023-07-25T22:23:50.011Z,59.17
2023-07-25T22:28:50.294Z,59.36
2023-07-25T22:33:49.771Z,59.61
2023-07-25T22:38:49.551Z,59.87
2023-07-25T22:43:51.008Z,60.37
2023-07-25T22:48:51.401Z,61.01
2023-07-25T22:53:50.468Z,61.04
2023-07-25T22:58:49.937Z,60.77
2023-07-25T23:03:49.527Z,61.26
2023-07-25T23:08:49.911Z,61.95
2023-07-25T23:13:49.312Z,61.88
2023-07-25T23:18:49.442Z,62.15
2023-07-25T23:23:49.086Z,62.76
2023-07-25T23:28:49.455Z,63.25
2023-07-25T23:33:50.546Z,63.07
2023-07-25T23:38:50.435Z,63.32
2023-07-25T23:43:50.355Z,63.76
2023-07-25T23:48:49.963Z,63.72
2023-07-25T23:53:49.280Z,63.73
2023-07-25T23:58:48.874Z,64.05
